aviador You're here:

KEYF Decoded Metar

ELIZABETHTOWN in NC, USA
Report Time2017-04-25 08:40:00
UTC Time2017-04-25 08:32:29
Flight Rules lifr LIFR
WindCalm
Visibility4023 m
Phenomena:Mist
Clouds:Overcast 001 Hf
Ceiling100 ft
Temp16°C (ISA +1)
Dew Point16°C (100% RH)
QNH1001 hPa
Density Alt935 ft
Elevation135 ft
Report Wrong Elevation
Raw Report
METAR KEYF 250840Z AUTO 00000KT 2 1/2SM BR OVC001 16/16 A2957 RMK AO2
P0001 T01610161=

Extra information for KEYF:More info

Metar Taf Metar & Taf Last 4 Metars F.Rules Stats Wind Profile Meteogram Temp Stats Airport Information Weather charts Add Link Nearby VenuesMetar ALERT Operation Metar Decoded Social comments

AIRNAV info for KEYF